sensor_id;sensor_type;location;lat;lon;timestamp;P1;durP1;ratioP1;P2;durP2;ratioP2
55037;SDS011;40937;53.594;10.034;2024-03-02T00:00:49;20.80;;;16.75;;
55037;SDS011;40937;53.594;10.034;2024-03-02T00:03:17;18.98;;;17.08;;
55037;SDS011;40937;53.594;10.034;2024-03-02T00:05:48;19.40;;;17.50;;
55037;SDS011;40937;53.594;10.034;2024-03-02T00:08:20;18.98;;;17.15;;
55037;SDS011;40937;53.594;10.034;2024-03-02T00:10:51;20.10;;;17.90;;
55037;SDS011;40937;53.594;10.034;2024-03-02T00:13:20;23.27;;;19.50;;
55037;SDS011;40937;53.594;10.034;2024-03-02T00:15:51;22.55;;;20.15;;
55037;SDS011;40937;53.594;10.034;2024-03-02T00:18:20;23.50;;;21.10;;
55037;SDS011;40937;53.594;10.034;2024-03-02T00:20:48;21.85;;;19.58;;
55037;SDS011;40937;53.594;10.034;2024-03-02T00:23:15;22.77;;;20.30;;
55037;SDS011;40937;53.594;10.034;2024-03-02T00:25:47;23.10;;;19.42;;
55037;SDS011;40937;53.594;10.034;2024-03-02T00:28:19;21.45;;;19.40;;
55037;SDS011;40937;53.594;10.034;2024-03-02T00:30:51;21.88;;;19.73;;
55037;SDS011;40937;53.594;10.034;2024-03-02T00:33:21;22.40;;;19.88;;
55037;SDS011;40937;53.594;10.034;2024-03-02T00:35:49;24.55;;;21.95;;
55037;SDS011;40937;53.594;10.034;2024-03-02T00:38:17;25.83;;;23.15;;
55037;SDS011;40937;53.594;10.034;2024-03-02T00:40:47;31.15;;;25.35;;
55037;SDS011;40937;53.594;10.034;2024-03-02T00:46:08;28.77;;;24.83;;
55037;SDS011;40937;53.594;10.034;2024-03-02T00:48:35;29.15;;;25.70;;
55037;SDS011;40937;53.594;10.034;2024-03-02T00:51:03;30.85;;;26.25;;
55037;SDS011;40937;53.594;10.034;2024-03-02T00:53:31;32.83;;;26.80;;
55037;SDS011;40937;53.594;10.034;2024-03-02T00:56:00;30.80;;;26.75;;
55037;SDS011;40937;53.594;10.034;2024-03-02T00:58:28;34.55;;;26.48;;
55037;SDS011;40937;53.594;10.034;2024-03-02T01:00:55;31.48;;;26.55;;
55037;SDS011;40937;53.594;10.034;2024-03-02T01:03:23;30.67;;;26.98;;
55037;SDS011;40937;53.594;10.034;2024-03-02T01:05:50;33.55;;;29.25;;
55037;SDS011;40937;53.594;10.034;2024-03-02T01:08:17;35.03;;;29.33;;
55037;SDS011;40937;53.594;10.034;2024-03-02T01:10:44;31.85;;;27.90;;
55037;SDS011;40937;53.594;10.034;2024-03-02T01:13:13;38.03;;;31.65;;
55037;SDS011;40937;53.594;10.034;2024-03-02T01:15:40;33.60;;;29.85;;
55037;SDS011;40937;53.594;10.034;2024-03-02T01:18:07;32.97;;;28.40;;
55037;SDS011;40937;53.594;10.034;2024-03-02T01:20:34;39.28;;;30.73;;
55037;SDS011;40937;53.594;10.034;2024-03-02T01:23:02;32.78;;;29.17;;
55037;SDS011;40937;53.594;10.034;2024-03-02T01:25:29;31.73;;;27.35;;
55037;SDS011;40937;53.594;10.034;2024-03-02T01:27:56;34.92;;;28.98;;
55037;SDS011;40937;53.594;10.034;2024-03-02T01:30:25;33.00;;;29.50;;
55037;SDS011;40937;53.594;10.034;2024-03-02T01:32:52;34.08;;;30.00;;
55037;SDS011;40937;53.594;10.034;2024-03-02T01:35:19;34.60;;;29.15;;
55037;SDS011;40937;53.594;10.034;2024-03-02T01:37:46;32.63;;;27.75;;
55037;SDS011;40937;53.594;10.034;2024-03-02T01:40:13;35.30;;;29.60;;
55037;SDS011;40937;53.594;10.034;2024-03-02T01:42:41;36.78;;;29.48;;
55037;SDS011;40937;53.594;10.034;2024-03-02T01:45:09;36.00;;;30.17;;
55037;SDS011;40937;53.594;10.034;2024-03-02T01:47:38;34.67;;;31.05;;
55037;SDS011;40937;53.594;10.034;2024-03-02T01:50:05;33.97;;;30.20;;
55037;SDS011;40937;53.594;10.034;2024-03-02T01:52:34;34.08;;;29.80;;
55037;SDS011;40937;53.594;10.034;2024-03-02T01:55:01;33.40;;;29.80;;
55037;SDS011;40937;53.594;10.034;2024-03-02T01:57:29;40.17;;;30.77;;
55037;SDS011;40937;53.594;10.034;2024-03-02T01:59:56;36.80;;;29.90;;
55037;SDS011;40937;53.594;10.034;2024-03-02T02:02:24;33.10;;;29.70;;
55037;SDS011;40937;53.594;10.034;2024-03-02T02:04:53;34.78;;;30.35;;
55037;SDS011;40937;53.594;10.034;2024-03-02T02:07:20;43.35;;;29.38;;
55037;SDS011;40937;53.594;10.034;2024-03-02T02:09:48;41.72;;;30.15;;
55037;SDS011;40937;53.594;10.034;2024-03-02T02:12:15;33.97;;;30.58;;
55037;SDS011;40937;53.594;10.034;2024-03-02T02:14:46;37.50;;;32.80;;
55037;SDS011;40937;53.594;10.034;2024-03-02T02:17:15;44.42;;;30.83;;
55037;SDS011;40937;53.594;10.034;2024-03-02T02:19:42;32.85;;;29.35;;
55037;SDS011;40937;53.594;10.034;2024-03-02T02:22:11;35.45;;;30.08;;
55037;SDS011;40937;53.594;10.034;2024-03-02T02:24:39;34.28;;;29.08;;
55037;SDS011;40937;53.594;10.034;2024-03-02T02:27:07;36.72;;;31.67;;
55037;SDS011;40937;53.594;10.034;2024-03-02T02:29:34;33.88;;;30.38;;
55037;SDS011;40937;53.594;10.034;2024-03-02T02:32:01;32.97;;;29.30;;
55037;SDS011;40937;53.594;10.034;2024-03-02T02:34:29;35.45;;;31.10;;
55037;SDS011;40937;53.594;10.034;2024-03-02T02:36:56;34.28;;;30.58;;
55037;SDS011;40937;53.594;10.034;2024-03-02T02:39:24;36.50;;;31.15;;
55037;SDS011;40937;53.594;10.034;2024-03-02T02:41:52;36.55;;;31.45;;
55037;SDS011;40937;53.594;10.034;2024-03-02T02:44:19;35.30;;;31.65;;
55037;SDS011;40937;53.594;10.034;2024-03-02T02:46:46;33.80;;;30.02;;
55037;SDS011;40937;53.594;10.034;2024-03-02T02:49:13;37.05;;;32.22;;
55037;SDS011;40937;53.594;10.034;2024-03-02T02:51:40;34.58;;;29.25;;
55037;SDS011;40937;53.594;10.034;2024-03-02T02:54:07;32.83;;;29.38;;
55037;SDS011;40937;53.594;10.034;2024-03-02T02:56:36;37.97;;;30.73;;
55037;SDS011;40937;53.594;10.034;2024-03-02T02:59:03;34.92;;;29.90;;
55037;SDS011;40937;53.594;10.034;2024-03-02T03:01:30;36.65;;;29.98;;
55037;SDS011;40937;53.594;10.034;2024-03-02T03:03:57;34.83;;;31.02;;
55037;SDS011;40937;53.594;10.034;2024-03-02T03:06:24;35.05;;;29.25;;
55037;SDS011;40937;53.594;10.034;2024-03-02T03:08:52;33.10;;;29.48;;
55037;SDS011;40937;53.594;10.034;2024-03-02T03:11:19;33.75;;;29.95;;
55037;SDS011;40937;53.594;10.034;2024-03-02T03:13:49;32.67;;;29.15;;
55037;SDS011;40937;53.594;10.034;2024-03-02T03:16:16;34.22;;;30.30;;
55037;SDS011;40937;53.594;10.034;2024-03-02T03:18:44;33.78;;;30.27;;
55037;SDS011;40937;53.594;10.034;2024-03-02T03:21:11;33.58;;;28.35;;
55037;SDS011;40937;53.594;10.034;2024-03-02T03:23:38;36.55;;;29.35;;
55037;SDS011;40937;53.594;10.034;2024-03-02T03:26:05;33.13;;;29.48;;
55037;SDS011;40937;53.594;10.034;2024-03-02T03:28:32;31.27;;;27.92;;
55037;SDS011;40937;53.594;10.034;2024-03-02T03:31:01;33.08;;;28.73;;
55037;SDS011;40937;53.594;10.034;2024-03-02T03:33:29;32.75;;;29.33;;
55037;SDS011;40937;53.594;10.034;2024-03-02T03:35:56;32.03;;;28.33;;
55037;SDS011;40937;53.594;10.034;2024-03-02T03:38:23;31.27;;;27.88;;
55037;SDS011;40937;53.594;10.034;2024-03-02T03:40:50;31.70;;;28.38;;
55037;SDS011;40937;53.594;10.034;2024-03-02T03:43:17;31.95;;;28.60;;
55037;SDS011;40937;53.594;10.034;2024-03-02T03:45:44;33.08;;;29.55;;
55037;SDS011;40937;53.594;10.034;2024-03-02T03:48:13;29.02;;;25.85;;
55037;SDS011;40937;53.594;10.034;2024-03-02T03:50:40;30.67;;;27.38;;
55037;SDS011;40937;53.594;10.034;2024-03-02T03:53:08;30.23;;;27.00;;
55037;SDS011;40937;53.594;10.034;2024-03-02T03:55:35;30.42;;;27.02;;
55037;SDS011;40937;53.594;10.034;2024-03-02T03:58:02;34.45;;;28.30;;
55037;SDS011;40937;53.594;10.034;2024-03-02T04:00:29;31.98;;;28.25;;
55037;SDS011;40937;53.594;10.034;2024-03-02T04:02:57;29.88;;;26.70;;
55037;SDS011;40937;53.594;10.034;2024-03-02T04:05:25;29.40;;;26.45;;
55037;SDS011;40937;53.594;10.034;2024-03-02T04:07:53;31.63;;;26.80;;
55037;SDS011;40937;53.594;10.034;2024-03-02T04:10:20;31.55;;;28.20;;
55037;SDS011;40937;53.594;10.034;2024-03-02T04:12:49;31.77;;;28.50;;
55037;SDS011;40937;53.594;10.034;2024-03-02T04:15:16;29.50;;;26.45;;
55037;SDS011;40937;53.594;10.034;2024-03-02T04:17:44;29.58;;;26.48;;
55037;SDS011;40937;53.594;10.034;2024-03-02T04:20:11;31.58;;;26.30;;
55037;SDS011;40937;53.594;10.034;2024-03-02T04:22:40;28.65;;;25.58;;
55037;SDS011;40937;53.594;10.034;2024-03-02T04:25:07;28.92;;;25.80;;
55037;SDS011;40937;53.594;10.034;2024-03-02T04:27:35;28.08;;;25.20;;
55037;SDS011;40937;53.594;10.034;2024-03-02T04:30:03;27.98;;;25.08;;
55037;SDS011;40937;53.594;10.034;2024-03-02T04:32:31;28.83;;;25.80;;
55037;SDS011;40937;53.594;10.034;2024-03-02T04:34:58;30.25;;;27.13;;
55037;SDS011;40937;53.594;10.034;2024-03-02T04:37:25;27.27;;;24.30;;
55037;SDS011;40937;53.594;10.034;2024-03-02T04:39:54;28.92;;;25.95;;
55037;SDS011;40937;53.594;10.034;2024-03-02T04:42:21;28.08;;;25.17;;
55037;SDS011;40937;53.594;10.034;2024-03-02T04:44:48;29.60;;;26.50;;
55037;SDS011;40937;53.594;10.034;2024-03-02T04:47:15;28.23;;;24.33;;
55037;SDS011;40937;53.594;10.034;2024-03-02T04:49:42;29.92;;;25.73;;
55037;SDS011;40937;53.594;10.034;2024-03-02T04:52:09;30.05;;;25.05;;
55037;SDS011;40937;53.594;10.034;2024-03-02T04:54:37;30.45;;;24.98;;
55037;SDS011;40937;53.594;10.034;2024-03-02T04:57:29;28.35;;;25.58;;
55037;SDS011;40937;53.594;10.034;2024-03-02T04:59:56;29.20;;;24.65;;
55037;SDS011;40937;53.594;10.034;2024-03-02T05:02:24;28.00;;;24.67;;
55037;SDS011;40937;53.594;10.034;2024-03-02T05:04:51;28.15;;;25.38;;
55037;SDS011;40937;53.594;10.034;2024-03-02T05:07:18;29.48;;;26.38;;
55037;SDS011;40937;53.594;10.034;2024-03-02T05:09:45;30.00;;;25.45;;
55037;SDS011;40937;53.594;10.034;2024-03-02T05:12:13;30.95;;;26.63;;
55037;SDS011;40937;53.594;10.034;2024-03-02T05:15:07;28.20;;;25.23;;
55037;SDS011;40937;53.594;10.034;2024-03-02T05:17:35;28.52;;;25.42;;
55037;SDS011;40937;53.594;10.034;2024-03-02T05:20:03;29.45;;;26.52;;
55037;SDS011;40937;53.594;10.034;2024-03-02T05:22:31;29.27;;;26.23;;
55037;SDS011;40937;53.594;10.034;2024-03-02T05:24:59;27.90;;;25.20;;
55037;SDS011;40937;53.594;10.034;2024-03-02T05:27:27;27.33;;;24.50;;
55037;SDS011;40937;53.594;10.034;2024-03-02T05:29:54;31.20;;;25.95;;
55037;SDS011;40937;53.594;10.034;2024-03-02T05:32:22;29.73;;;25.85;;
55037;SDS011;40937;53.594;10.034;2024-03-02T05:34:50;28.15;;;25.23;;
55037;SDS011;40937;53.594;10.034;2024-03-02T05:37:17;27.60;;;24.65;;
55037;SDS011;40937;53.594;10.034;2024-03-02T05:39:44;27.75;;;25.00;;
55037;SDS011;40937;53.594;10.034;2024-03-02T05:42:11;29.10;;;24.98;;
55037;SDS011;40937;53.594;10.034;2024-03-02T05:44:38;29.85;;;25.70;;
55037;SDS011;40937;53.594;10.034;2024-03-02T05:47:06;28.52;;;25.48;;
55037;SDS011;40937;53.594;10.034;2024-03-02T05:49:35;28.67;;;25.60;;
55037;SDS011;40937;53.594;10.034;2024-03-02T05:52:03;28.65;;;25.33;;
55037;SDS011;40937;53.594;10.034;2024-03-02T05:54:31;28.70;;;25.75;;
55037;SDS011;40937;53.594;10.034;2024-03-02T05:56:58;30.10;;;25.45;;
55037;SDS011;40937;53.594;10.034;2024-03-02T05:59:42;26.05;;;23.08;;
55037;SDS011;40937;53.594;10.034;2024-03-02T06:02:09;27.95;;;25.10;;
55037;SDS011;40937;53.594;10.034;2024-03-02T06:04:38;26.13;;;23.35;;
55037;SDS011;40937;53.594;10.034;2024-03-02T06:07:05;32.08;;;24.30;;
55037;SDS011;40937;53.594;10.034;2024-03-02T06:09:32;28.75;;;25.75;;
55037;SDS011;40937;53.594;10.034;2024-03-02T06:11:59;26.13;;;23.27;;
55037;SDS011;40937;53.594;10.034;2024-03-02T06:14:27;27.08;;;24.23;;
55037;SDS011;40937;53.594;10.034;2024-03-02T06:16:54;25.52;;;22.95;;
55037;SDS011;40937;53.594;10.034;2024-03-02T06:19:21;25.88;;;22.60;;
55037;SDS011;40937;53.594;10.034;2024-03-02T06:21:49;27.80;;;23.92;;
55037;SDS011;40937;53.594;10.034;2024-03-02T06:24:17;25.73;;;23.08;;
55037;SDS011;40937;53.594;10.034;2024-03-02T06:26:44;27.55;;;23.88;;
55037;SDS011;40937;53.594;10.034;2024-03-02T06:29:11;25.65;;;22.40;;
55037;SDS011;40937;53.594;10.034;2024-03-02T06:31:38;25.20;;;22.70;;
55037;SDS011;40937;53.594;10.034;2024-03-02T06:34:06;29.10;;;25.90;;
55037;SDS011;40937;53.594;10.034;2024-03-02T06:36:34;29.63;;;24.85;;
55037;SDS011;40937;53.594;10.034;2024-03-02T06:39:02;27.98;;;24.65;;
55037;SDS011;40937;53.594;10.034;2024-03-02T06:41:29;27.33;;;24.45;;
55037;SDS011;40937;53.594;10.034;2024-03-02T06:43:57;26.27;;;23.52;;
55037;SDS011;40937;53.594;10.034;2024-03-02T06:46:25;28.00;;;23.10;;
55037;SDS011;40937;53.594;10.034;2024-03-02T06:48:52;25.88;;;23.13;;
55037;SDS011;40937;53.594;10.034;2024-03-02T06:51:19;24.67;;;22.17;;
55037;SDS011;40937;53.594;10.034;2024-03-02T06:53:46;26.42;;;23.73;;
55037;SDS011;40937;53.594;10.034;2024-03-02T06:56:15;27.95;;;24.70;;
55037;SDS011;40937;53.594;10.034;2024-03-02T06:58:42;23.20;;;20.88;;
55037;SDS011;40937;53.594;10.034;2024-03-02T07:01:09;24.45;;;21.33;;
55037;SDS011;40937;53.594;10.034;2024-03-02T07:03:37;25.52;;;22.92;;
55037;SDS011;40937;53.594;10.034;2024-03-02T07:06:05;25.05;;;22.42;;
55037;SDS011;40937;53.594;10.034;2024-03-02T07:08:32;25.90;;;22.98;;
55037;SDS011;40937;53.594;10.034;2024-03-02T07:11:00;24.40;;;21.80;;
55037;SDS011;40937;53.594;10.034;2024-03-02T07:13:28;25.05;;;22.45;;
55037;SDS011;40937;53.594;10.034;2024-03-02T07:15:56;23.75;;;21.50;;
55037;SDS011;40937;53.594;10.034;2024-03-02T07:18:54;25.00;;;21.65;;
55037;SDS011;40937;53.594;10.034;2024-03-02T07:21:22;26.23;;;21.58;;
55037;SDS011;40937;53.594;10.034;2024-03-02T07:23:49;26.90;;;22.77;;
55037;SDS011;40937;53.594;10.034;2024-03-02T07:26:17;22.52;;;20.23;;
55037;SDS011;40937;53.594;10.034;2024-03-02T07:28:46;26.48;;;20.85;;
55037;SDS011;40937;53.594;10.034;2024-03-02T07:31:14;23.10;;;20.90;;
55037;SDS011;40937;53.594;10.034;2024-03-02T07:33:43;26.38;;;22.83;;
55037;SDS011;40937;53.594;10.034;2024-03-02T07:36:11;24.20;;;21.75;;
55037;SDS011;40937;53.594;10.034;2024-03-02T07:38:38;26.27;;;21.77;;
55037;SDS011;40937;53.594;10.034;2024-03-02T07:41:06;25.17;;;22.48;;
55037;SDS011;40937;53.594;10.034;2024-03-02T07:43:34;26.13;;;23.27;;
55037;SDS011;40937;53.594;10.034;2024-03-02T07:46:03;25.58;;;22.65;;
55037;SDS011;40937;53.594;10.034;2024-03-02T07:48:30;24.63;;;22.10;;
55037;SDS011;40937;53.594;10.034;2024-03-02T07:50:57;24.20;;;21.58;;
55037;SDS011;40937;53.594;10.034;2024-03-02T07:53:24;25.98;;;22.98;;
55037;SDS011;40937;53.594;10.034;2024-03-02T07:55:52;25.92;;;23.15;;
55037;SDS011;40937;53.594;10.034;2024-03-02T07:58:19;26.27;;;23.77;;
55037;SDS011;40937;53.594;10.034;2024-03-02T08:00:47;26.20;;;23.60;;
55037;SDS011;40937;53.594;10.034;2024-03-02T08:03:15;25.05;;;22.35;;
55037;SDS011;40937;53.594;10.034;2024-03-02T08:05:42;27.58;;;24.48;;
55037;SDS011;40937;53.594;10.034;2024-03-02T08:08:11;27.38;;;24.48;;
55037;SDS011;40937;53.594;10.034;2024-03-02T08:10:38;26.88;;;24.13;;
55037;SDS011;40937;53.594;10.034;2024-03-02T08:13:06;26.55;;;23.70;;
55037;SDS011;40937;53.594;10.034;2024-03-02T08:15:33;26.17;;;22.70;;
55037;SDS011;40937;53.594;10.034;2024-03-02T08:18:00;27.95;;;24.98;;
55037;SDS011;40937;53.594;10.034;2024-03-02T08:20:29;30.27;;;25.80;;
55037;SDS011;40937;53.594;10.034;2024-03-02T08:22:57;28.73;;;24.80;;
55037;SDS011;40937;53.594;10.034;2024-03-02T08:25:24;29.23;;;25.83;;
55037;SDS011;40937;53.594;10.034;2024-03-02T08:27:52;31.33;;;24.73;;
55037;SDS011;40937;53.594;10.034;2024-03-02T08:30:19;30.20;;;25.55;;
55037;SDS011;40937;53.594;10.034;2024-03-02T08:32:47;32.63;;;24.10;;
55037;SDS011;40937;53.594;10.034;2024-03-02T08:35:17;28.75;;;25.80;;
55037;SDS011;40937;53.594;10.034;2024-03-02T08:37:46;29.25;;;26.00;;
55037;SDS011;40937;53.594;10.034;2024-03-02T08:40:14;27.13;;;24.52;;
55037;SDS011;40937;53.594;10.034;2024-03-02T08:42:42;27.10;;;24.17;;
55037;SDS011;40937;53.594;10.034;2024-03-02T08:45:09;28.73;;;24.75;;
55037;SDS011;40937;53.594;10.034;2024-03-02T08:47:36;29.92;;;26.45;;
55037;SDS011;40937;53.594;10.034;2024-03-02T08:50:04;29.55;;;26.45;;
55037;SDS011;40937;53.594;10.034;2024-03-02T08:52:32;29.83;;;25.73;;
55037;SDS011;40937;53.594;10.034;2024-03-02T08:55:00;28.13;;;25.23;;
55037;SDS011;40937;53.594;10.034;2024-03-02T08:57:28;29.63;;;26.35;;
55037;SDS011;40937;53.594;10.034;2024-03-02T08:59:55;31.45;;;26.02;;
55037;SDS011;40937;53.594;10.034;2024-03-02T09:02:23;28.83;;;25.92;;
55037;SDS011;40937;53.594;10.034;2024-03-02T09:04:50;30.08;;;26.77;;
55037;SDS011;40937;53.594;10.034;2024-03-02T09:07:18;26.73;;;23.63;;
55037;SDS011;40937;53.594;10.034;2024-03-02T09:09:45;28.58;;;25.70;;
55037;SDS011;40937;53.594;10.034;2024-03-02T09:12:13;26.95;;;24.05;;
55037;SDS011;40937;53.594;10.034;2024-03-02T09:14:41;28.30;;;24.13;;
55037;SDS011;40937;53.594;10.034;2024-03-02T09:17:08;30.10;;;25.17;;
55037;SDS011;40937;53.594;10.034;2024-03-02T09:19:37;28.33;;;25.38;;
55037;SDS011;40937;53.594;10.034;2024-03-02T09:22:05;26.92;;;24.33;;
55037;SDS011;40937;53.594;10.034;2024-03-02T09:24:32;30.48;;;24.58;;
55037;SDS011;40937;53.594;10.034;2024-03-02T09:26:59;26.20;;;23.52;;
55037;SDS011;40937;53.594;10.034;2024-03-02T09:29:28;27.30;;;23.58;;
55037;SDS011;40937;53.594;10.034;2024-03-02T09:31:55;25.10;;;22.52;;
55037;SDS011;40937;53.594;10.034;2024-03-02T09:34:23;26.55;;;23.73;;
55037;SDS011;40937;53.594;10.034;2024-03-02T09:36:50;28.23;;;23.85;;
55037;SDS011;40937;53.594;10.034;2024-03-02T09:39:18;27.98;;;24.52;;
55037;SDS011;40937;53.594;10.034;2024-03-02T09:41:46;25.00;;;22.42;;
55037;SDS011;40937;53.594;10.034;2024-03-02T09:44:14;25.20;;;22.70;;
55037;SDS011;40937;53.594;10.034;2024-03-02T09:46:43;24.42;;;21.92;;
55037;SDS011;40937;53.594;10.034;2024-03-02T09:49:12;26.45;;;23.88;;
55037;SDS011;40937;53.594;10.034;2024-03-02T09:51:40;25.92;;;22.52;;
55037;SDS011;40937;53.594;10.034;2024-03-02T09:54:07;23.92;;;21.55;;
55037;SDS011;40937;53.594;10.034;2024-03-02T09:56:35;26.40;;;23.60;;
55037;SDS011;40937;53.594;10.034;2024-03-02T09:59:02;25.30;;;22.52;;
55037;SDS011;40937;53.594;10.034;2024-03-02T10:01:30;27.30;;;22.30;;
55037;SDS011;40937;53.594;10.034;2024-03-02T10:03:59;23.83;;;21.42;;
55037;SDS011;40937;53.594;10.034;2024-03-02T10:06:28;25.15;;;21.60;;
55037;SDS011;40937;53.594;10.034;2024-03-02T10:08:56;23.35;;;20.85;;
55037;SDS011;40937;53.594;10.034;2024-03-02T10:11:27;23.33;;;20.83;;
55037;SDS011;40937;53.594;10.034;2024-03-02T10:14:06;24.73;;;21.77;;
55037;SDS011;40937;53.594;10.034;2024-03-02T10:16:35;24.58;;;21.92;;
55037;SDS011;40937;53.594;10.034;2024-03-02T10:19:18;24.85;;;21.50;;
55037;SDS011;40937;53.594;10.034;2024-03-02T10:21:46;21.80;;;19.75;;
55037;SDS011;40937;53.594;10.034;2024-03-02T10:24:13;23.02;;;20.73;;
55037;SDS011;40937;53.594;10.034;2024-03-02T10:26:40;20.83;;;18.42;;
55037;SDS011;40937;53.594;10.034;2024-03-02T10:29:08;20.88;;;18.50;;
55037;SDS011;40937;53.594;10.034;2024-03-02T10:31:36;19.38;;;17.10;;
55037;SDS011;40937;53.594;10.034;2024-03-02T10:34:04;21.00;;;18.05;;
55037;SDS011;40937;53.594;10.034;2024-03-02T10:36:33;20.00;;;16.85;;
55037;SDS011;40937;53.594;10.034;2024-03-02T10:39:02;19.27;;;17.50;;
55037;SDS011;40937;53.594;10.034;2024-03-02T10:41:30;18.50;;;16.50;;
55037;SDS011;40937;53.594;10.034;2024-03-02T10:44:01;22.10;;;16.75;;
55037;SDS011;40937;53.594;10.034;2024-03-02T10:46:29;17.58;;;15.75;;
55037;SDS011;40937;53.594;10.034;2024-03-02T10:48:59;18.67;;;16.85;;
55037;SDS011;40937;53.594;10.034;2024-03-02T10:51:28;18.50;;;15.95;;
55037;SDS011;40937;53.594;10.034;2024-03-02T10:53:58;17.15;;;15.55;;
55037;SDS011;40937;53.594;10.034;2024-03-02T10:56:28;20.52;;;15.18;;
55037;SDS011;40937;53.594;10.034;2024-03-02T10:58:59;17.33;;;15.77;;
55037;SDS011;40937;53.594;10.034;2024-03-02T11:01:31;17.75;;;15.85;;
55037;SDS011;40937;53.594;10.034;2024-03-02T11:03:59;16.63;;;15.02;;
55037;SDS011;40937;53.594;10.034;2024-03-02T11:06:29;18.75;;;17.05;;
55037;SDS011;40937;53.594;10.034;2024-03-02T11:09:01;16.70;;;15.10;;
55037;SDS011;40937;53.594;10.034;2024-03-02T11:11:36;19.65;;;13.70;;
55037;SDS011;40937;53.594;10.034;2024-03-02T11:14:07;16.33;;;14.00;;
55037;SDS011;40937;53.594;10.034;2024-03-02T11:16:37;13.60;;;12.13;;
55037;SDS011;40937;53.594;10.034;2024-03-02T11:19:07;15.10;;;12.40;;
55037;SDS011;40937;53.594;10.034;2024-03-02T11:21:37;13.07;;;11.77;;
55037;SDS011;40937;53.594;10.034;2024-03-02T11:27:00;10.75;;;9.80;;
55037;SDS011;40937;53.594;10.034;2024-03-02T11:29:47;11.10;;;10.00;;
55037;SDS011;40937;53.594;10.034;2024-03-02T11:32:15;12.75;;;10.45;;
55037;SDS011;40937;53.594;10.034;2024-03-02T11:34:45;11.38;;;9.50;;
55037;SDS011;40937;53.594;10.034;2024-03-02T11:37:13;10.30;;;9.27;;
55037;SDS011;40937;53.594;10.034;2024-03-02T11:39:44;11.35;;;9.98;;
55037;SDS011;40937;53.594;10.034;2024-03-02T11:42:12;10.40;;;9.30;;
55037;SDS011;40937;53.594;10.034;2024-03-02T11:44:42;10.02;;;8.95;;
55037;SDS011;40937;53.594;10.034;2024-03-02T11:47:11;10.50;;;9.50;;
55037;SDS011;40937;53.594;10.034;2024-03-02T11:49:41;9.05;;;8.30;;
55037;SDS011;40937;53.594;10.034;2024-03-02T11:52:11;8.95;;;8.15;;
55037;SDS011;40937;53.594;10.034;2024-03-02T11:54:41;9.85;;;8.88;;
55037;SDS011;40937;53.594;10.034;2024-03-02T11:57:16;9.13;;;8.43;;
55037;SDS011;40937;53.594;10.034;2024-03-02T11:59:45;10.05;;;8.70;;
55037;SDS011;40937;53.594;10.034;2024-03-02T12:02:14;9.18;;;8.27;;
55037;SDS011;40937;53.594;10.034;2024-03-02T12:04:44;9.82;;;8.93;;
55037;SDS011;40937;53.594;10.034;2024-03-02T12:07:12;10.15;;;9.10;;
55037;SDS011;40937;53.594;10.034;2024-03-02T12:09:44;8.73;;;7.85;;
55037;SDS011;40937;53.594;10.034;2024-03-02T12:12:12;9.10;;;7.97;;
55037;SDS011;40937;53.594;10.034;2024-03-02T12:14:50;10.68;;;9.68;;
55037;SDS011;40937;53.594;10.034;2024-03-02T12:17:21;12.80;;;8.15;;
55037;SDS011;40937;53.594;10.034;2024-03-02T12:19:48;12.70;;;8.45;;
55037;SDS011;40937;53.594;10.034;2024-03-02T12:22:15;10.63;;;9.57;;
55037;SDS011;40937;53.594;10.034;2024-03-02T12:24:44;10.35;;;9.35;;
55037;SDS011;40937;53.594;10.034;2024-03-02T12:27:12;10.75;;;8.52;;
55037;SDS011;40937;53.594;10.034;2024-03-02T12:29:39;10.38;;;9.38;;
55037;SDS011;40937;53.594;10.034;2024-03-02T12:32:08;9.77;;;8.88;;
55037;SDS011;40937;53.594;10.034;2024-03-02T12:34:38;13.32;;;9.73;;
55037;SDS011;40937;53.594;10.034;2024-03-02T12:37:06;9.70;;;8.80;;
55037;SDS011;40937;53.594;10.034;2024-03-02T12:39:33;10.40;;;9.38;;
55037;SDS011;40937;53.594;10.034;2024-03-02T12:42:02;10.13;;;9.20;;
55037;SDS011;40937;53.594;10.034;2024-03-02T12:44:29;9.70;;;8.90;;
55037;SDS011;40937;53.594;10.034;2024-03-02T12:46:56;9.38;;;8.35;;
55037;SDS011;40937;53.594;10.034;2024-03-02T12:49:25;12.18;;;9.52;;
55037;SDS011;40937;53.594;10.034;2024-03-02T12:51:54;11.95;;;9.73;;
55037;SDS011;40937;53.594;10.034;2024-03-02T12:54:23;10.35;;;9.45;;
55037;SDS011;40937;53.594;10.034;2024-03-02T12:56:50;15.82;;;10.50;;
55037;SDS011;40937;53.594;10.034;2024-03-02T12:59:20;10.68;;;9.57;;
55037;SDS011;40937;53.594;10.034;2024-03-02T13:01:51;11.85;;;9.75;;
55037;SDS011;40937;53.594;10.034;2024-03-02T13:04:21;10.65;;;9.73;;
55037;SDS011;40937;53.594;10.034;2024-03-02T13:06:51;10.35;;;9.50;;
55037;SDS011;40937;53.594;10.034;2024-03-02T13:09:19;11.68;;;9.32;;
55037;SDS011;40937;53.594;10.034;2024-03-02T13:11:47;10.90;;;9.82;;
55037;SDS011;40937;53.594;10.034;2024-03-02T13:14:15;11.57;;;10.45;;
55037;SDS011;40937;53.594;10.034;2024-03-02T13:16:44;11.45;;;10.25;;
55037;SDS011;40937;53.594;10.034;2024-03-02T13:19:12;11.98;;;10.98;;
55037;SDS011;40937;53.594;10.034;2024-03-02T13:21:39;12.02;;;10.75;;
55037;SDS011;40937;53.594;10.034;2024-03-02T13:24:08;12.50;;;11.30;;
55037;SDS011;40937;53.594;10.034;2024-03-02T13:26:35;10.70;;;9.70;;
55037;SDS011;40937;53.594;10.034;2024-03-02T13:29:03;11.50;;;9.82;;
55037;SDS011;40937;53.594;10.034;2024-03-02T13:31:30;10.85;;;9.75;;
55037;SDS011;40937;53.594;10.034;2024-03-02T13:33:57;11.18;;;10.02;;
55037;SDS011;40937;53.594;10.034;2024-03-02T13:36:25;11.38;;;10.40;;
55037;SDS011;40937;53.594;10.034;2024-03-02T13:38:52;15.48;;;12.20;;
55037;SDS011;40937;53.594;10.034;2024-03-02T13:41:20;12.77;;;11.57;;
55037;SDS011;40937;53.594;10.034;2024-03-02T13:43:48;14.57;;;12.40;;
55037;SDS011;40937;53.594;10.034;2024-03-02T13:46:15;12.82;;;11.52;;
55037;SDS011;40937;53.594;10.034;2024-03-02T13:48:42;15.30;;;12.27;;
55037;SDS011;40937;53.594;10.034;2024-03-02T13:51:09;13.32;;;12.05;;
55037;SDS011;40937;53.594;10.034;2024-03-02T13:53:37;13.50;;;12.07;;
55037;SDS011;40937;53.594;10.034;2024-03-02T13:56:04;13.77;;;12.43;;
55037;SDS011;40937;53.594;10.034;2024-03-02T13:58:33;13.02;;;11.77;;
55037;SDS011;40937;53.594;10.034;2024-03-02T14:01:03;14.95;;;12.18;;
55037;SDS011;40937;53.594;10.034;2024-03-02T14:03:31;12.32;;;10.88;;
55037;SDS011;40937;53.594;10.034;2024-03-02T14:05:58;13.15;;;11.88;;
55037;SDS011;40937;53.594;10.034;2024-03-02T14:08:25;20.10;;;11.52;;
55037;SDS011;40937;53.594;10.034;2024-03-02T14:10:53;13.88;;;11.25;;
55037;SDS011;40937;53.594;10.034;2024-03-02T14:13:21;14.25;;;12.68;;
55037;SDS011;40937;53.594;10.034;2024-03-02T14:15:50;13.32;;;12.02;;
55037;SDS011;40937;53.594;10.034;2024-03-02T14:18:17;13.35;;;11.73;;
55037;SDS011;40937;53.594;10.034;2024-03-02T14:20:45;12.52;;;11.32;;
55037;SDS011;40937;53.594;10.034;2024-03-02T14:23:17;13.48;;;12.20;;